sensor_id;sensor_type;location;lat;lon;timestamp;pressure;altitude;pressure_sealevel;temperature;humidity
6132;BME280;3097;42.692;23.278;2023-03-03T00:00:47;95043.66;;;4.42;99.07
6132;BME280;3097;42.692;23.278;2023-03-03T00:03:19;95056.00;;;4.60;98.58
6132;BME280;3097;42.692;23.278;2023-03-03T00:05:45;95057.41;;;4.62;98.09
6132;BME280;3097;42.692;23.278;2023-03-03T00:08:10;95052.66;;;4.59;98.08
6132;BME280;3097;42.692;23.278;2023-03-03T00:10:37;95022.00;;;4.38;98.07
6132;BME280;3097;42.692;23.278;2023-03-03T00:13:03;95022.81;;;4.60;97.57
6132;BME280;3097;42.692;23.278;2023-03-03T00:15:29;95009.41;;;4.37;98.18
6132;BME280;3097;42.692;23.278;2023-03-03T00:17:55;95035.69;;;4.52;98.62
6132;BME280;3097;42.692;23.278;2023-03-03T00:22:53;95043.63;;;4.57;98.22
6132;BME280;3097;42.692;23.278;2023-03-03T00:25:33;94994.38;;;4.42;98.06
6132;BME280;3097;42.692;23.278;2023-03-03T00:28:31;95042.69;;;4.43;99.38
6132;BME280;3097;42.692;23.278;2023-03-03T00:31:16;95037.34;;;4.59;98.70
6132;BME280;3097;42.692;23.278;2023-03-03T00:33:53;95037.78;;;4.63;98.54
6132;BME280;3097;42.692;23.278;2023-03-03T00:36:38;95040.56;;;4.68;99.00
6132;BME280;3097;42.692;23.278;2023-03-03T00:39:30;95030.00;;;4.71;98.93
6132;BME280;3097;42.692;23.278;2023-03-03T00:41:59;95036.16;;;4.41;99.93
6132;BME280;3097;42.692;23.278;2023-03-03T00:47:20;94991.50;;;4.15;100.00
6132;BME280;3097;42.692;23.278;2023-03-03T00:49:47;95014.97;;;4.25;100.00
6132;BME280;3097;42.692;23.278;2023-03-03T00:52:17;94999.91;;;4.31;100.00
6132;BME280;3097;42.692;23.278;2023-03-03T00:54:43;94992.63;;;4.27;100.00
6132;BME280;3097;42.692;23.278;2023-03-03T00:57:09;95009.75;;;4.48;100.00
6132;BME280;3097;42.692;23.278;2023-03-03T00:59:37;95005.16;;;4.58;100.00
6132;BME280;3097;42.692;23.278;2023-03-03T01:02:02;95000.63;;;4.60;99.81
6132;BME280;3097;42.692;23.278;2023-03-03T01:04:28;94994.78;;;4.66;99.83
6132;BME280;3097;42.692;23.278;2023-03-03T01:06:53;94988.66;;;4.82;98.75
6132;BME280;3097;42.692;23.278;2023-03-03T01:09:20;94980.78;;;4.77;98.84
6132;BME280;3097;42.692;23.278;2023-03-03T01:11:46;94992.81;;;4.83;98.81
6132;BME280;3097;42.692;23.278;2023-03-03T01:14:11;94990.75;;;4.93;97.99
6132;BME280;3097;42.692;23.278;2023-03-03T01:16:37;94944.53;;;4.46;98.51
6132;BME280;3097;42.692;23.278;2023-03-03T01:19:03;94994.34;;;4.78;98.50
6132;BME280;3097;42.692;23.278;2023-03-03T01:21:28;94987.03;;;4.75;98.81
6132;BME280;3097;42.692;23.278;2023-03-03T01:23:54;94874.47;;;4.06;98.75
6132;BME280;3097;42.692;23.278;2023-03-03T01:26:38;94985.88;;;4.77;98.75
6132;BME280;3097;42.692;23.278;2023-03-03T01:29:04;94991.59;;;4.79;99.16
6132;BME280;3097;42.692;23.278;2023-03-03T01:31:29;94994.03;;;4.87;97.81
6132;BME280;3097;42.692;23.278;2023-03-03T01:33:55;94988.19;;;4.93;98.55
6132;BME280;3097;42.692;23.278;2023-03-03T01:36:24;94990.34;;;4.96;97.61
6132;BME280;3097;42.692;23.278;2023-03-03T01:38:50;94985.81;;;4.92;98.21
6132;BME280;3097;42.692;23.278;2023-03-03T01:41:18;94975.03;;;4.75;98.00
6132;BME280;3097;42.692;23.278;2023-03-03T01:43:46;94984.53;;;4.81;98.86
6132;BME280;3097;42.692;23.278;2023-03-03T01:46:27;94979.56;;;4.73;98.98
6132;BME280;3097;42.692;23.278;2023-03-03T01:49:02;94937.38;;;4.35;99.28
6132;BME280;3097;42.692;23.278;2023-03-03T01:51:35;94977.59;;;4.75;99.15
6132;BME280;3097;42.692;23.278;2023-03-03T01:54:04;94973.09;;;4.77;98.54
6132;BME280;3097;42.692;23.278;2023-03-03T01:56:30;94980.81;;;4.62;99.31
6132;BME280;3097;42.692;23.278;2023-03-03T01:59:06;94973.66;;;4.73;98.99
6132;BME280;3097;42.692;23.278;2023-03-03T02:01:34;94974.06;;;4.76;98.06
6132;BME280;3097;42.692;23.278;2023-03-03T02:04:00;94976.81;;;4.53;99.35
6132;BME280;3097;42.692;23.278;2023-03-03T02:06:30;94975.03;;;4.54;100.00
6132;BME280;3097;42.692;23.278;2023-03-03T02:11:46;94974.56;;;4.65;100.00
6132;BME280;3097;42.692;23.278;2023-03-03T02:14:14;94979.63;;;4.80;99.21
6132;BME280;3097;42.692;23.278;2023-03-03T02:16:40;94968.53;;;4.51;99.62
6132;BME280;3097;42.692;23.278;2023-03-03T02:19:12;94976.97;;;4.52;100.00
6132;BME280;3097;42.692;23.278;2023-03-03T02:21:42;94979.81;;;4.57;99.95
6132;BME280;3097;42.692;23.278;2023-03-03T02:24:16;94980.53;;;4.72;98.70
6132;BME280;3097;42.692;23.278;2023-03-03T02:26:44;94970.25;;;4.65;98.23
6132;BME280;3097;42.692;23.278;2023-03-03T02:29:10;94979.06;;;4.63;98.86
6132;BME280;3097;42.692;23.278;2023-03-03T02:31:36;94979.31;;;4.68;99.59
6132;BME280;3097;42.692;23.278;2023-03-03T02:34:03;94974.63;;;4.72;98.86
6132;BME280;3097;42.692;23.278;2023-03-03T02:36:30;94970.72;;;4.76;98.59
6132;BME280;3097;42.692;23.278;2023-03-03T02:44:13;94974.31;;;4.81;96.91
6132;BME280;3097;42.692;23.278;2023-03-03T02:46:42;94977.75;;;4.88;97.18
6132;BME280;3097;42.692;23.278;2023-03-03T02:49:09;94969.69;;;4.91;97.40
6132;BME280;3097;42.692;23.278;2023-03-03T02:51:35;94929.34;;;4.59;97.16
6132;BME280;3097;42.692;23.278;2023-03-03T02:54:01;94977.47;;;4.83;97.36
6132;BME280;3097;42.692;23.278;2023-03-03T02:56:27;94972.50;;;4.75;97.97
6132;BME280;3097;42.692;23.278;2023-03-03T02:58:53;94973.97;;;4.84;96.92
6132;BME280;3097;42.692;23.278;2023-03-03T03:01:18;94950.25;;;4.69;97.02
6132;BME280;3097;42.692;23.278;2023-03-03T03:03:44;94967.81;;;4.79;97.29
6132;BME280;3097;42.692;23.278;2023-03-03T03:06:10;94965.63;;;4.76;97.54
6132;BME280;3097;42.692;23.278;2023-03-03T03:08:35;94937.00;;;4.59;97.98
6132;BME280;3097;42.692;23.278;2023-03-03T03:11:02;94968.22;;;4.82;97.91
6132;BME280;3097;42.692;23.278;2023-03-03T03:13:28;94966.91;;;4.86;97.33
6132;BME280;3097;42.692;23.278;2023-03-03T03:15:54;94964.81;;;4.96;98.00
6132;BME280;3097;42.692;23.278;2023-03-03T03:18:20;94925.56;;;4.76;97.51
6132;BME280;3097;42.692;23.278;2023-03-03T03:20:45;94947.50;;;4.92;96.55
6132;BME280;3097;42.692;23.278;2023-03-03T03:23:11;94957.09;;;4.90;97.41
6132;BME280;3097;42.692;23.278;2023-03-03T03:25:36;94962.94;;;4.84;97.49
6132;BME280;3097;42.692;23.278;2023-03-03T03:28:11;94955.66;;;4.59;99.55
6132;BME280;3097;42.692;23.278;2023-03-03T03:30:36;94934.09;;;4.41;99.95
6132;BME280;3097;42.692;23.278;2023-03-03T03:33:03;94964.47;;;4.78;98.68
6132;BME280;3097;42.692;23.278;2023-03-03T03:35:28;94955.00;;;4.72;98.93
6132;BME280;3097;42.692;23.278;2023-03-03T03:37:54;94953.88;;;4.60;99.85
6132;BME280;3097;42.692;23.278;2023-03-03T03:40:19;94923.47;;;4.58;99.80
6132;BME280;3097;42.692;23.278;2023-03-03T03:42:44;94950.75;;;4.79;99.18
6132;BME280;3097;42.692;23.278;2023-03-03T03:45:10;94893.59;;;4.38;99.74
6132;BME280;3097;42.692;23.278;2023-03-03T03:47:40;94947.94;;;4.74;99.75
6132;BME280;3097;42.692;23.278;2023-03-03T03:50:07;94900.06;;;4.34;99.91
6132;BME280;3097;42.692;23.278;2023-03-03T03:52:32;94940.09;;;4.54;100.00
6132;BME280;3097;42.692;23.278;2023-03-03T03:54:58;94912.94;;;4.47;100.00
6132;BME280;3097;42.692;23.278;2023-03-03T03:57:23;94898.13;;;4.36;100.00
6132;BME280;3097;42.692;23.278;2023-03-03T03:59:49;94904.31;;;4.48;100.00
6132;BME280;3097;42.692;23.278;2023-03-03T04:02:15;94912.31;;;4.45;100.00
6132;BME280;3097;42.692;23.278;2023-03-03T04:04:40;94940.16;;;4.82;100.00
6132;BME280;3097;42.692;23.278;2023-03-03T04:07:06;94929.09;;;4.75;100.00
6132;BME280;3097;42.692;23.278;2023-03-03T04:09:31;94922.47;;;4.81;99.75
6132;BME280;3097;42.692;23.278;2023-03-03T04:11:57;94936.00;;;4.81;100.00
6132;BME280;3097;42.692;23.278;2023-03-03T04:14:22;94942.97;;;4.87;100.00
6132;BME280;3097;42.692;23.278;2023-03-03T04:16:48;94926.53;;;4.75;100.00
6132;BME280;3097;42.692;23.278;2023-03-03T04:19:13;94938.44;;;4.89;100.00
6132;BME280;3097;42.692;23.278;2023-03-03T04:21:39;94939.84;;;4.92;100.00
6132;BME280;3097;42.692;23.278;2023-03-03T04:24:04;94933.94;;;4.91;100.00
6132;BME280;3097;42.692;23.278;2023-03-03T04:26:30;94937.28;;;4.92;100.00
6132;BME280;3097;42.692;23.278;2023-03-03T04:28:58;94942.22;;;4.93;100.00
6132;BME280;3097;42.692;23.278;2023-03-03T04:31:24;94934.31;;;4.88;100.00
6132;BME280;3097;42.692;23.278;2023-03-03T04:33:50;94935.03;;;5.03;100.00
6132;BME280;3097;42.692;23.278;2023-03-03T04:36:16;94936.22;;;5.07;100.00
6132;BME280;3097;42.692;23.278;2023-03-03T04:38:42;94916.31;;;4.75;99.81
6132;BME280;3097;42.692;23.278;2023-03-03T04:41:07;94929.22;;;4.88;100.00
6132;BME280;3097;42.692;23.278;2023-03-03T04:43:33;94931.94;;;4.87;99.90
6132;BME280;3097;42.692;23.278;2023-03-03T04:45:58;94938.63;;;4.88;100.00
6132;BME280;3097;42.692;23.278;2023-03-03T04:48:24;94936.78;;;4.82;100.00
6132;BME280;3097;42.692;23.278;2023-03-03T04:50:49;94934.06;;;4.83;100.00
6132;BME280;3097;42.692;23.278;2023-03-03T04:53:15;94938.78;;;4.80;100.00
6132;BME280;3097;42.692;23.278;2023-03-03T04:55:40;94934.63;;;4.79;100.00
6132;BME280;3097;42.692;23.278;2023-03-03T04:58:05;94943.13;;;4.86;100.00
6132;BME280;3097;42.692;23.278;2023-03-03T05:00:31;94942.03;;;4.74;100.00
6132;BME280;3097;42.692;23.278;2023-03-03T05:02:57;94818.06;;;3.94;100.00
6132;BME280;3097;42.692;23.278;2023-03-03T05:05:23;94944.00;;;4.72;100.00
6132;BME280;3097;42.692;23.278;2023-03-03T05:07:49;94938.50;;;4.75;100.00
6132;BME280;3097;42.692;23.278;2023-03-03T05:10:14;94931.81;;;4.74;100.00
6132;BME280;3097;42.692;23.278;2023-03-03T05:12:39;94947.44;;;4.85;100.00
6132;BME280;3097;42.692;23.278;2023-03-03T05:15:05;94948.13;;;4.94;100.00
6132;BME280;3097;42.692;23.278;2023-03-03T05:17:31;94947.09;;;4.88;100.00
6132;BME280;3097;42.692;23.278;2023-03-03T05:19:56;94950.06;;;4.92;100.00
6132;BME280;3097;42.692;23.278;2023-03-03T05:22:22;94937.47;;;4.69;100.00
6132;BME280;3097;42.692;23.278;2023-03-03T05:24:48;94947.09;;;4.67;100.00
6132;BME280;3097;42.692;23.278;2023-03-03T05:27:14;94949.06;;;4.65;100.00
6132;BME280;3097;42.692;23.278;2023-03-03T05:29:40;94928.97;;;4.62;100.00
6132;BME280;3097;42.692;23.278;2023-03-03T05:32:06;94953.88;;;4.81;100.00
6132;BME280;3097;42.692;23.278;2023-03-03T05:34:31;94955.84;;;4.79;100.00
6132;BME280;3097;42.692;23.278;2023-03-03T05:36:57;94954.50;;;4.83;100.00
6132;BME280;3097;42.692;23.278;2023-03-03T05:39:22;94955.84;;;4.79;100.00
6132;BME280;3097;42.692;23.278;2023-03-03T05:41:47;94909.91;;;4.58;100.00
6132;BME280;3097;42.692;23.278;2023-03-03T05:44:13;94958.03;;;4.82;100.00
6132;BME280;3097;42.692;23.278;2023-03-03T05:46:39;94901.75;;;4.48;100.00
6132;BME280;3097;42.692;23.278;2023-03-03T05:49:04;94960.03;;;4.87;100.00
6132;BME280;3097;42.692;23.278;2023-03-03T05:51:29;94965.03;;;4.95;100.00
6132;BME280;3097;42.692;23.278;2023-03-03T05:53:55;94960.13;;;5.00;100.00
6132;BME280;3097;42.692;23.278;2023-03-03T05:56:20;94964.34;;;5.07;100.00
6132;BME280;3097;42.692;23.278;2023-03-03T05:58:46;94954.75;;;4.88;100.00
6132;BME280;3097;42.692;23.278;2023-03-03T06:01:11;94960.22;;;4.85;100.00
6132;BME280;3097;42.692;23.278;2023-03-03T06:03:37;94914.34;;;4.49;100.00
6132;BME280;3097;42.692;23.278;2023-03-03T06:06:03;94964.09;;;4.81;100.00
6132;BME280;3097;42.692;23.278;2023-03-03T06:08:29;94963.38;;;4.87;100.00
6132;BME280;3097;42.692;23.278;2023-03-03T06:10:56;94964.22;;;4.94;100.00
6132;BME280;3097;42.692;23.278;2023-03-03T06:13:22;94945.88;;;4.84;100.00
6132;BME280;3097;42.692;23.278;2023-03-03T06:15:48;94960.44;;;4.90;100.00
6132;BME280;3097;42.692;23.278;2023-03-03T06:18:13;94935.78;;;4.76;100.00
6132;BME280;3097;42.692;23.278;2023-03-03T06:20:39;94969.22;;;5.02;100.00
6132;BME280;3097;42.692;23.278;2023-03-03T06:23:04;94972.75;;;5.01;100.00
6132;BME280;3097;42.692;23.278;2023-03-03T06:25:30;94974.69;;;4.99;100.00
6132;BME280;3097;42.692;23.278;2023-03-03T06:27:56;94977.00;;;4.73;100.00
6132;BME280;3097;42.692;23.278;2023-03-03T06:30:21;94967.78;;;4.72;100.00
6132;BME280;3097;42.692;23.278;2023-03-03T06:32:46;94970.31;;;4.93;100.00
6132;BME280;3097;42.692;23.278;2023-03-03T06:35:12;94937.91;;;4.73;100.00
6132;BME280;3097;42.692;23.278;2023-03-03T06:37:38;94974.31;;;5.02;100.00
6132;BME280;3097;42.692;23.278;2023-03-03T06:40:05;94959.56;;;5.04;100.00
6132;BME280;3097;42.692;23.278;2023-03-03T06:42:31;94913.47;;;4.85;100.00
6132;BME280;3097;42.692;23.278;2023-03-03T06:44:57;94979.66;;;5.35;100.00
6132;BME280;3097;42.692;23.278;2023-03-03T06:47:22;94969.69;;;5.40;100.00
6132;BME280;3097;42.692;23.278;2023-03-03T06:49:47;94986.03;;;5.46;100.00
6132;BME280;3097;42.692;23.278;2023-03-03T06:52:19;94982.72;;;5.52;99.70
6132;BME280;3097;42.692;23.278;2023-03-03T06:54:46;94978.88;;;5.63;99.33
6132;BME280;3097;42.692;23.278;2023-03-03T06:57:28;94981.44;;;5.63;99.21
6132;BME280;3097;42.692;23.278;2023-03-03T06:59:57;94974.97;;;5.73;99.75
6132;BME280;3097;42.692;23.278;2023-03-03T07:02:24;94978.97;;;5.82;99.59
6132;BME280;3097;42.692;23.278;2023-03-03T07:04:49;94959.28;;;5.76;99.26
6132;BME280;3097;42.692;23.278;2023-03-03T07:07:27;94977.47;;;5.95;97.56
6132;BME280;3097;42.692;23.278;2023-03-03T07:09:54;94984.75;;;5.91;96.76
6132;BME280;3097;42.692;23.278;2023-03-03T07:12:27;94993.34;;;5.83;98.12
6132;BME280;3097;42.692;23.278;2023-03-03T07:15:19;94979.94;;;5.81;97.56
6132;BME280;3097;42.692;23.278;2023-03-03T07:17:48;94978.56;;;5.79;96.64
6132;BME280;3097;42.692;23.278;2023-03-03T07:20:23;94980.91;;;5.74;97.96
6132;BME280;3097;42.692;23.278;2023-03-03T07:22:49;94983.47;;;5.80;96.55
6132;BME280;3097;42.692;23.278;2023-03-03T07:25:31;94984.09;;;5.82;98.05
6132;BME280;3097;42.692;23.278;2023-03-03T07:28:15;94973.88;;;5.82;98.48
6132;BME280;3097;42.692;23.278;2023-03-03T07:30:44;94930.09;;;5.64;97.96
6132;BME280;3097;42.692;23.278;2023-03-03T07:33:22;94967.38;;;5.87;96.51
6132;BME280;3097;42.692;23.278;2023-03-03T07:35:48;94979.88;;;6.03;95.95
6132;BME280;3097;42.692;23.278;2023-03-03T07:40:46;94966.13;;;5.69;96.49
6132;BME280;3097;42.692;23.278;2023-03-03T07:45:49;94978.38;;;5.80;97.51
6132;BME280;3097;42.692;23.278;2023-03-03T07:48:24;94976.59;;;5.81;96.22
6132;BME280;3097;42.692;23.278;2023-03-03T07:50:51;94978.94;;;5.76;97.28
6132;BME280;3097;42.692;23.278;2023-03-03T07:53:28;94940.88;;;5.60;96.72
6132;BME280;3097;42.692;23.278;2023-03-03T07:55:55;94975.22;;;5.78;96.45
6132;BME280;3097;42.692;23.278;2023-03-03T07:58:35;94974.38;;;5.71;97.19
6132;BME280;3097;42.692;23.278;2023-03-03T08:03:46;94942.50;;;5.67;96.87
6132;BME280;3097;42.692;23.278;2023-03-03T08:06:39;94964.00;;;5.79;98.08
6132;BME280;3097;42.692;23.278;2023-03-03T08:11:34;94970.94;;;5.86;97.52
6132;BME280;3097;42.692;23.278;2023-03-03T08:14:00;94974.38;;;5.99;97.99
6132;BME280;3097;42.692;23.278;2023-03-03T08:16:44;94970.31;;;6.18;97.93
6132;BME280;3097;42.692;23.278;2023-03-03T08:19:10;94970.72;;;6.21;96.79
6132;BME280;3097;42.692;23.278;2023-03-03T08:21:40;94965.03;;;6.33;97.11
6132;BME280;3097;42.692;23.278;2023-03-03T08:24:07;94845.09;;;5.56;96.61
6132;BME280;3097;42.692;23.278;2023-03-03T08:26:33;94960.53;;;6.41;97.01
6132;BME280;3097;42.692;23.278;2023-03-03T08:28:58;94963.13;;;6.54;97.27
6132;BME280;3097;42.692;23.278;2023-03-03T08:31:25;94942.63;;;6.54;97.34
6132;BME280;3097;42.692;23.278;2023-03-03T08:33:51;94954.88;;;6.66;95.45
6132;BME280;3097;42.692;23.278;2023-03-03T08:36:17;94945.81;;;6.70;94.81
6132;BME280;3097;42.692;23.278;2023-03-03T08:38:42;94951.72;;;6.77;94.68
6132;BME280;3097;42.692;23.278;2023-03-03T08:41:08;94948.00;;;6.86;92.65
6132;BME280;3097;42.692;23.278;2023-03-03T08:43:33;94917.81;;;6.61;93.36
6132;BME280;3097;42.692;23.278;2023-03-03T08:46:01;94948.41;;;6.96;93.03
6132;BME280;3097;42.692;23.278;2023-03-03T08:48:27;94951.16;;;6.75;93.21
6132;BME280;3097;42.692;23.278;2023-03-03T08:50:53;94952.53;;;6.77;92.62
6132;BME280;3097;42.692;23.278;2023-03-03T08:53:20;94952.75;;;6.82;93.09
6132;BME280;3097;42.692;23.278;2023-03-03T08:55:46;94948.41;;;6.83;93.34
6132;BME280;3097;42.692;23.278;2023-03-03T08:58:12;94958.47;;;6.91;92.72
6132;BME280;3097;42.692;23.278;2023-03-03T09:00:38;94947.19;;;6.79;93.23
6132;BME280;3097;42.692;23.278;2023-03-03T09:03:04;94939.94;;;6.76;94.49
6132;BME280;3097;42.692;23.278;2023-03-03T09:05:36;94951.34;;;6.93;93.58
6132;BME280;3097;42.692;23.278;2023-03-03T09:08:02;94948.78;;;6.99;93.57
6132;BME280;3097;42.692;23.278;2023-03-03T09:10:31;94926.94;;;6.90;94.06
6132;BME280;3097;42.692;23.278;2023-03-03T09:12:59;94959.25;;;6.98;92.67
6132;BME280;3097;42.692;23.278;2023-03-03T09:15:28;94913.34;;;6.83;91.45
6132;BME280;3097;42.692;23.278;2023-03-03T09:17:59;94946.81;;;7.02;92.24
6132;BME280;3097;42.692;23.278;2023-03-03T09:25:53;94951.75;;;7.23;92.75
6132;BME280;3097;42.692;23.278;2023-03-03T09:28:26;94927.53;;;7.12;91.10
6132;BME280;3097;42.692;23.278;2023-03-03T09:30:53;94947.63;;;7.09;91.29
6132;BME280;3097;42.692;23.278;2023-03-03T09:33:44;94951.56;;;7.11;91.55
6132;BME280;3097;42.692;23.278;2023-03-03T09:36:27;94953.13;;;7.25;92.77
6132;BME280;3097;42.692;23.278;2023-03-03T09:38:54;94951.94;;;7.34;92.69
6132;BME280;3097;42.692;23.278;2023-03-03T09:49:39;94950.75;;;7.44;90.13
6132;BME280;3097;42.692;23.278;2023-03-03T09:54:52;94951.94;;;7.48;91.89
6132;BME280;3097;42.692;23.278;2023-03-03T10:00:55;94949.13;;;7.62;90.83
6132;BME280;3097;42.692;23.278;2023-03-03T10:11:26;94950.31;;;7.66;90.47
6132;BME280;3097;42.692;23.278;2023-03-03T10:23:07;94941.38;;;7.82;90.31
6132;BME280;3097;42.692;23.278;2023-03-03T10:25:27;94935.25;;;7.83;91.56
6132;BME280;3097;42.692;23.278;2023-03-03T10:33:39;94918.41;;;8.07;91.81
6132;BME280;3097;42.692;23.278;2023-03-03T10:36:31;94925.34;;;8.00;91.59
6132;BME280;3097;42.692;23.278;2023-03-03T10:39:24;94928.50;;;8.02;91.12
6132;BME280;3097;42.692;23.278;2023-03-03T10:50:02;94914.38;;;7.80;91.81
6132;BME280;3097;42.692;23.278;2023-03-03T10:52:48;94918.06;;;7.90;92.38
6132;BME280;3097;42.692;23.278;2023-03-03T11:00:51;94904.78;;;8.06;92.93
6132;BME280;3097;42.692;23.278;2023-03-03T11:06:01;94907.72;;;8.10;92.60
6132;BME280;3097;42.692;23.278;2023-03-03T11:11:09;94901.81;;;8.09;91.63
6132;BME280;3097;42.692;23.278;2023-03-03T11:16:39;94890.78;;;8.02;91.21
6132;BME280;3097;42.692;23.278;2023-03-03T11:37:43;94885.63;;;8.09;93.45
6132;BME280;3097;42.692;23.278;2023-03-03T11:40:23;94877.09;;;8.15;93.12
6132;BME280;3097;42.692;23.278;2023-03-03T11:43:09;94870.16;;;8.15;93.24
6132;BME280;3097;42.692;23.278;2023-03-03T11:45:43;94876.47;;;8.20;93.67
6132;BME280;3097;42.692;23.278;2023-03-03T11:48:17;94874.06;;;8.25;93.29
6132;BME280;3097;42.692;23.278;2023-03-03T12:01:56;94864.16;;;8.35;94.28
6132;BME280;3097;42.692;23.278;2023-03-03T12:10:16;94869.53;;;8.27;93.04
6132;BME280;3097;42.692;23.278;2023-03-03T12:12:46;94856.09;;;8.25;93.73
6132;BME280;3097;42.692;23.278;2023-03-03T12:21:33;94869.53;;;8.27;95.17
6132;BME280;3097;42.692;23.278;2023-03-03T12:26:36;94874.19;;;7.98;94.42
6132;BME280;3097;42.692;23.278;2023-03-03T12:29:10;94862.41;;;7.84;94.67
6132;BME280;3097;42.692;23.278;2023-03-03T12:34:30;94860.44;;;7.86;96.07
6132;BME280;3097;42.692;23.278;2023-03-03T12:42:15;94874.03;;;7.93;96.31
6132;BME280;3097;42.692;23.278;2023-03-03T12:47:21;94882.59;;;7.81;96.18
6132;BME280;3097;42.692;23.278;2023-03-03T12:53:20;94871.53;;;7.80;97.00
6132;BME280;3097;42.692;23.278;2023-03-03T12:55:52;94878.28;;;7.61;94.74
6132;BME280;3097;42.692;23.278;2023-03-03T13:04:39;94869.63;;;7.56;98.80
6132;BME280;3097;42.692;23.278;2023-03-03T13:07:24;94871.59;;;7.54;98.99
6132;BME280;3097;42.692;23.278;2023-03-03T13:15:26;94864.47;;;7.69;99.04
6132;BME280;3097;42.692;23.278;2023-03-03T13:23:13;94858.25;;;7.96;98.09
6132;BME280;3097;42.692;23.278;2023-03-03T13:25:49;94863.06;;;8.18;98.77
6132;BME280;3097;42.692;23.278;2023-03-03T13:28:40;94855.91;;;8.26;98.17
6132;BME280;3097;42.692;23.278;2023-03-03T13:33:39;94859.69;;;8.55;97.29
6132;BME280;3097;42.692;23.278;2023-03-03T13:36:10;94862.81;;;8.57;95.31
6132;BME280;3097;42.692;23.278;2023-03-03T13:38:41;94859.44;;;8.63;95.41
6132;BME280;3097;42.692;23.278;2023-03-03T13:41:28;94821.28;;;8.35;95.71
6132;BME280;3097;42.692;23.278;2023-03-03T13:47:13;94849.97;;;8.57;94.14
6132;BME280;3097;42.692;23.278;2023-03-03T13:52:32;94850.81;;;8.51;93.92
6132;BME280;3097;42.692;23.278;2023-03-03T13:55:28;94846.47;;;8.51;94.20
6132;BME280;3097;42.692;23.278;2023-03-03T14:01:03;94854.38;;;8.50;95.06
6132;BME280;3097;42.692;23.278;2023-03-03T14:06:16;94821.16;;;8.24;94.93
6132;BME280;3097;42.692;23.278;2023-03-03T14:11:34;94856.44;;;8.41;95.66
6132;BME280;3097;42.692;23.278;2023-03-03T14:16:59;94743.72;;;7.64;94.99
6132;BME280;3097;42.692;23.278;2023-03-03T14:19:43;94849.72;;;8.40;95.27
6132;BME280;3097;42.692;23.278;2023-03-03T14:22:21;94838.91;;;8.32;95.12
6132;BME280;3097;42.692;23.278;2023-03-03T14:25:02;94836.50;;;8.30;95.59
6132;BME280;3097;42.692;23.278;2023-03-03T14:27:35;94829.44;;;8.26;95.59
6132;BME280;3097;42.692;23.278;2023-03-03T14:35:35;94841.41;;;8.38;95.70
6132;BME280;3097;42.692;23.278;2023-03-03T14:38:25;94845.53;;;8.46;95.52
6132;BME280;3097;42.692;23.278;2023-03-03T14:41:20;94854.22;;;8.45;95.21
6132;BME280;3097;42.692;23.278;2023-03-03T14:43:58;94739.28;;;7.77;94.98
6132;BME280;3097;42.692;23.278;2023-03-03T14:46:38;94810.19;;;8.10;95.80
6132;BME280;3097;42.692;23.278;2023-03-03T14:49:13;94833.16;;;8.30;96.37
6132;BME280;3097;42.692;23.278;2023-03-03T14:51:47;94843.59;;;8.35;95.69
6132;BME280;3097;42.692;23.278;2023-03-03T14:54:27;94836.34;;;8.25;96.24
6132;BME280;3097;42.692;23.278;2023-03-03T14:59:24;94838.50;;;8.28;96.07
6132;BME280;3097;42.692;23.278;2023-03-03T15:05:30;94826.44;;;8.29;95.73
6132;BME280;3097;42.692;23.278;2023-03-03T15:08:16;94838.91;;;8.32;95.20
6132;BME280;3097;42.692;23.278;2023-03-03T15:10:48;94836.91;;;8.27;95.33
6132;BME280;3097;42.692;23.278;2023-03-03T15:18:23;94838.53;;;8.22;95.20
6132;BME280;3097;42.692;23.278;2023-03-03T15:21:07;94834.91;;;7.98;95.11
6132;BME280;3097;42.692;23.278;2023-03-03T15:29:22;94836.25;;;8.07;96.63
6132;BME280;3097;42.692;23.278;2023-03-03T15:32:05;94799.84;;;7.85;96.61
6132;BME280;3097;42.692;23.278;2023-03-03T15:40:14;94838.91;;;7.94;96.32
6132;BME280;3097;42.692;23.278;2023-03-03T15:42:51;94840.03;;;7.98;96.49
6132;BME280;3097;42.692;23.278;2023-03-03T15:45:47;94758.81;;;7.41;96.28
6132;BME280;3097;42.692;23.278;2023-03-03T15:51:46;94836.75;;;7.84;96.51
6132;BME280;3097;42.692;23.278;2023-03-03T15:56:36;94854.66;;;7.97;95.71
6132;BME280;3097;42.692;23.278;2023-03-03T16:02:48;94851.09;;;7.98;96.01
6132;BME280;3097;42.692;23.278;2023-03-03T16:06:46;94820.59;;;7.77;96.31
6132;BME280;3097;42.692;23.278;2023-03-03T16:25:02;94873.00;;;8.01;96.69
6132;BME280;3097;42.692;23.278;2023-03-03T16:32:52;94874.94;;;8.05;96.07
6132;BME280;3097;42.692;23.278;2023-03-03T16:35:25;94876.97;;;8.03;96.05
6132;BME280;3097;42.692;23.278;2023-03-03T16:38:01;94882.66;;;8.05;95.63
6132;BME280;3097;42.692;23.278;2023-03-03T16:40:32;94882.47;;;8.07;95.54
6132;BME280;3097;42.692;23.278;2023-03-03T16:46:28;94894.59;;;7.87;96.70
6132;BME280;3097;42.692;23.278;2023-03-03T16:52:13;94886.38;;;7.65;97.08
6132;BME280;3097;42.692;23.278;2023-03-03T16:54:53;94898.41;;;7.71;97.37
6132;BME280;3097;42.692;23.278;2023-03-03T17:00:08;94910.25;;;7.65;97.52
6132;BME280;3097;42.692;23.278;2023-03-03T17:05:16;94916.72;;;7.81;97.51
6132;BME280;3097;42.692;23.278;2023-03-03T17:16:23;94913.03;;;7.57;98.52
6132;BME280;3097;42.692;23.278;2023-03-03T17:32:37;94921.66;;;7.76;98.30
6132;BME280;3097;42.692;23.278;2023-03-03T17:35:50;94929.97;;;7.78;98.06
6132;BME280;3097;42.692;23.278;2023-03-03T17:38:36;94932.75;;;7.70;97.81
6132;BME280;3097;42.692;23.278;2023-03-03T17:41:21;94938.03;;;7.75;98.02
6132;BME280;3097;42.692;23.278;2023-03-03T17:46:59;94950.88;;;7.75;98.12
6132;BME280;3097;42.692;23.278;2023-03-03T17:49:46;94952.28;;;7.71;97.91
6132;BME280;3097;42.692;23.278;2023-03-03T17:52:25;94951.47;;;7.77;97.64
6132;BME280;3097;42.692;23.278;2023-03-03T18:06:29;94966.88;;;7.70;96.92
6132;BME280;3097;42.692;23.278;2023-03-03T18:22:53;94975.19;;;7.59;97.31
6132;BME280;3097;42.692;23.278;2023-03-03T18:25:24;94979.13;;;7.62;97.59
6132;BME280;3097;42.692;23.278;2023-03-03T18:33:34;94978.13;;;7.69;97.41
6132;BME280;3097;42.692;23.278;2023-03-03T18:36:36;94984.44;;;7.67;98.10
6132;BME280;3097;42.692;23.278;2023-03-03T18:39:04;94977.53;;;7.74;97.49
6132;BME280;3097;42.692;23.278;2023-03-03T18:44:37;94958.88;;;7.27;97.74
6132;BME280;3097;42.692;23.278;2023-03-03T18:47:03;94993.34;;;7.45;97.76
6132;BME280;3097;42.692;23.278;2023-03-03T18:52:33;95007.53;;;7.60;97.92
6132;BME280;3097;42.692;23.278;2023-03-03T18:57:36;95006.56;;;7.61;98.26